Time;durP1;ratioP1;P1;durP2;ratioP2;P2;SDS_P1;SDS_P2;PMS_P1;PMS_P2;Temp;Humidity;BMP_temperature;BMP_pressure;BME280_temperature;BME280_humidity;BME280_pressure;Samples;Min_cycle;Max_cycle;Signal;HPM_P1;HPM_P2
2021/08/25 00:01:40;;;;;;;4.80;3.30;;;;;;;;;;4352809;32;20074;-75
2021/08/25 00:04:06;;;;;;;5.35;3.33;;;;;;;;;;4377205;32;20080;-75
2021/08/25 00:06:33;;;;;;;6.40;2.87;;;;;;;;;;4352833;32;20104;-75
2021/08/25 00:08:59;;;;;;;4.55;3.25;;;;;;;;;;4364859;32;20078;-75
2021/08/25 00:11:25;;;;;;;4.65;3.12;;;;;;;;;;4377251;32;20575;-75
2021/08/25 00:13:52;;;;;;;4.43;3.40;;;;;;;;;;4377023;32;20156;-74
2021/08/25 00:16:18;;;;;;;4.32;3.28;;;;;;;;;;4376976;32;20170;-74
2021/08/25 00:18:45;;;;;;;4.18;3.03;;;;;;;;;;4377122;32;20512;-75
2021/08/25 00:21:12;;;;;;;8.27;3.37;;;;;;;;;;4365181;32;20070;-75
2021/08/25 00:23:38;;;;;;;4.97;3.35;;;;;;;;;;4377493;32;20096;-75
2021/08/25 00:26:04;;;;;;;4.30;3.05;;;;;;;;;;4390999;32;20097;-74
2021/08/25 00:28:31;;;;;;;6.30;3.40;;;;;;;;;;4378001;32;20100;-75
2021/08/25 00:30:57;;;;;;;4.82;3.33;;;;;;;;;;4391398;32;20073;-74
2021/08/25 00:33:24;;;;;;;5.50;3.55;;;;;;;;;;4377282;32;20081;-75
2021/08/25 00:35:50;;;;;;;3.90;3.00;;;;;;;;;;4376831;32;20074;-75
2021/08/25 00:38:17;;;;;;;4.72;2.95;;;;;;;;;;4353973;32;20145;-75
2021/08/25 00:40:43;;;;;;;5.37;3.40;;;;;;;;;;4367014;32;20093;-74
2021/08/25 00:43:10;;;;;;;5.95;3.50;;;;;;;;;;4393966;32;20089;-74
2021/08/25 00:45:41;;;;;;;6.00;3.17;;;;;;;;;;4379951;32;20086;-75
2021/08/25 00:48:17;;;;;;;4.95;3.60;;;;;;;;;;4367291;32;20098;-75
2021/08/25 00:50:47;;;;;;;6.18;3.40;;;;;;;;;;4368771;32;20169;-75
2021/08/25 00:53:14;;;;;;;5.40;3.53;;;;;;;;;;4367519;32;20150;-75
2021/08/25 00:55:41;;;;;;;7.40;3.40;;;;;;;;;;4367147;32;20515;-74
2021/08/25 00:58:08;;;;;;;4.32;3.10;;;;;;;;;;4380405;32;20069;-74
2021/08/25 01:00:35;;;;;;;3.80;2.75;;;;;;;;;;4393773;32;20078;-75
2021/08/25 01:03:38;;;;;;;5.03;3.30;;;;;;;;;;4355407;32;20104;-75
2021/08/25 01:06:05;;;;;;;5.57;3.42;;;;;;;;;;4389195;32;20070;-75
2021/08/25 01:08:32;;;;;;;6.25;3.50;;;;;;;;;;4393028;32;20077;-75
2021/08/25 01:11:11;;;;;;;3.92;2.83;;;;;;;;;;4391481;32;20070;-76
2021/08/25 01:13:37;;;;;;;4.47;3.22;;;;;;;;;;4407935;32;20073;-76
2021/08/25 01:16:04;;;;;;;6.62;3.53;;;;;;;;;;4380319;32;20439;-73
2021/08/25 01:18:31;;;;;;;3.55;2.87;;;;;;;;;;4393351;32;20077;-75
2021/08/25 01:20:59;;;;;;;5.35;3.30;;;;;;;;;;4393347;32;20066;-75
2021/08/25 01:23:26;;;;;;;3.95;3.03;;;;;;;;;;4360561;32;20521;-76
2021/08/25 01:25:57;;;;;;;4.68;3.35;;;;;;;;;;4369386;32;20475;-75
2021/08/25 01:28:29;;;;;;;6.62;3.03;;;;;;;;;;4356210;32;20521;-76
2021/08/25 01:30:55;;;;;;;4.03;2.83;;;;;;;;;;4381290;32;20085;-75
2021/08/25 01:33:27;;;;;;;3.55;3.03;;;;;;;;;;4357082;32;20093;-76
2021/08/25 01:35:53;;;;;;;4.80;3.12;;;;;;;;;;4380855;32;20077;-75
2021/08/25 01:38:48;;;;;;;7.10;3.37;;;;;;;;;;4380568;32;20163;-75
2021/08/25 01:41:16;;;;;;;5.12;3.00;;;;;;;;;;4370906;32;20493;-75
2021/08/25 01:43:43;;;;;;;5.68;3.20;;;;;;;;;;4357432;32;20086;-75
2021/08/25 01:46:21;;;;;;;4.55;2.80;;;;;;;;;;4381958;32;20096;-76
2021/08/25 01:48:48;;;;;;;5.57;3.15;;;;;;;;;;4356004;32;20156;-76
2021/08/25 01:51:15;;;;;;;5.07;2.97;;;;;;;;;;4380870;32;20066;-76
2021/08/25 01:53:41;;;;;;;5.05;3.85;;;;;;;;;;4367628;32;20488;-75
2021/08/25 01:56:07;;;;;;;4.70;3.25;;;;;;;;;;4393185;32;20081;-76
2021/08/25 01:58:34;;;;;;;4.78;3.10;;;;;;;;;;4379091;32;20073;-75
2021/08/25 02:01:00;;;;;;;6.32;2.70;;;;;;;;;;4379208;32;20077;-75
2021/08/25 02:03:27;;;;;;;5.75;2.78;;;;;;;;;;4366382;32;20084;-74
2021/08/25 02:05:53;;;;;;;4.72;3.20;;;;;;;;;;4378460;32;20069;-75
2021/08/25 02:08:20;;;;;;;3.53;2.15;;;;;;;;;;4353910;32;20062;-74
2021/08/25 02:10:46;;;;;;;5.97;3.17;;;;;;;;;;4378738;32;20070;-74
2021/08/25 02:13:13;;;;;;;3.97;2.97;;;;;;;;;;4354047;32;20095;-74
2021/08/25 02:15:39;;;;;;;3.83;2.87;;;;;;;;;;4392264;32;20150;-74
2021/08/25 02:18:06;;;;;;;3.95;2.95;;;;;;;;;;4365901;32;20166;-75
2021/08/25 02:20:32;;;;;;;2.17;1.45;;;;;;;;;;4378451;32;20541;-76
2021/08/25 02:22:59;;;;;;;3.87;2.80;;;;;;;;;;4378336;32;20081;-74
2021/08/25 02:25:25;;;;;;;3.97;3.15;;;;;;;;;;4378423;32;20451;-75
2021/08/25 02:27:52;;;;;;;4.32;3.00;;;;;;;;;;4365846;32;20077;-74
2021/08/25 02:30:18;;;;;;;5.90;2.72;;;;;;;;;;4353638;32;20078;-74
2021/08/25 02:32:45;;;;;;;5.57;3.17;;;;;;;;;;4392532;32;20157;-75
2021/08/25 02:35:12;;;;;;;4.50;2.87;;;;;;;;;;4392633;32;20084;-74
2021/08/25 02:37:38;;;;;;;4.28;3.10;;;;;;;;;;4354355;32;20157;-75
2021/08/25 02:40:06;;;;;;;2.97;2.47;;;;;;;;;;4365867;32;20074;-75
2021/08/25 02:42:32;;;;;;;3.58;2.45;;;;;;;;;;4378178;32;20491;-75
2021/08/25 02:45:00;;;;;;;4.75;3.15;;;;;;;;;;4365499;32;20424;-75
2021/08/25 02:47:26;;;;;;;4.57;2.92;;;;;;;;;;4365782;32;20460;-76
2021/08/25 02:49:53;;;;;;;4.68;3.37;;;;;;;;;;4377622;32;20516;-75
2021/08/25 02:52:19;;;;;;;5.22;3.10;;;;;;;;;;4365920;32;20076;-76
2021/08/25 02:54:46;;;;;;;5.62;3.35;;;;;;;;;;4365341;32;20484;-74
2021/08/25 02:57:12;;;;;;;5.93;3.90;;;;;;;;;;4377820;32;20077;-75
2021/08/25 02:59:38;;;;;;;4.72;3.62;;;;;;;;;;4365083;32;20596;-75
2021/08/25 03:02:05;;;;;;;6.32;4.37;;;;;;;;;;4391251;32;20471;-76
2021/08/25 03:04:31;;;;;;;8.90;3.87;;;;;;;;;;4365446;32;20088;-76
2021/08/25 03:06:58;;;;;;;7.78;3.22;;;;;;;;;;4378268;32;20522;-76
2021/08/25 03:09:24;;;;;;;5.15;3.22;;;;;;;;;;4378949;32;20094;-75
2021/08/25 03:11:51;;;;;;;3.47;2.30;;;;;;;;;;4378165;32;20081;-75
2021/08/25 03:14:17;;;;;;;4.80;3.28;;;;;;;;;;4365408;32;20089;-75
2021/08/25 03:16:44;;;;;;;5.30;3.72;;;;;;;;;;4377554;32;20086;-75
2021/08/25 03:19:10;;;;;;;4.32;3.28;;;;;;;;;;4391534;32;20153;-75
2021/08/25 03:21:41;;;;;;;4.90;3.83;;;;;;;;;;4365010;32;20087;-76
2021/08/25 03:24:10;;;;;;;4.68;3.33;;;;;;;;;;4391846;32;20089;-75
2021/08/25 03:26:37;;;;;;;5.18;3.65;;;;;;;;;;4353148;32;20159;-75
2021/08/25 03:29:03;;;;;;;5.10;3.42;;;;;;;;;;4391726;32;20112;-74
2021/08/25 03:31:30;;;;;;;5.32;3.20;;;;;;;;;;4377555;32;20060;-75
2021/08/25 03:33:57;;;;;;;7.55;3.58;;;;;;;;;;4353217;32;20099;-74
2021/08/25 03:36:23;;;;;;;7.72;4.20;;;;;;;;;;4352818;32;20077;-75
2021/08/25 03:38:49;;;;;;;4.22;2.35;;;;;;;;;;4365285;32;20085;-74
2021/08/25 03:41:16;;;;;;;5.85;4.18;;;;;;;;;;4391622;32;20454;-75
2021/08/25 03:43:42;;;;;;;6.95;3.85;;;;;;;;;;4391711;32;20085;-74
2021/08/25 03:46:10;;;;;;;3.65;2.10;;;;;;;;;;4352404;32;20081;-75
2021/08/25 03:48:37;;;;;;;3.33;2.37;;;;;;;;;;4377686;32;20088;-75
2021/08/25 03:51:03;;;;;;;6.78;4.45;;;;;;;;;;4377400;32;20259;-75
2021/08/25 03:53:30;;;;;;;5.70;3.75;;;;;;;;;;4385347;32;20073;-75
2021/08/25 03:55:56;;;;;;;4.12;2.70;;;;;;;;;;4400856;32;20074;-75
2021/08/25 03:58:23;;;;;;;2.87;2.08;;;;;;;;;;4394476;32;20089;-76
2021/08/25 04:00:52;;;;;;;3.62;2.87;;;;;;;;;;4381588;32;20078;-75
2021/08/25 04:03:19;;;;;;;3.72;1.92;;;;;;;;;;4373417;32;20070;-76
2021/08/25 04:05:45;;;;;;;3.35;2.70;;;;;;;;;;4372927;32;20077;-79
2021/08/25 04:08:12;;;;;;;4.80;2.72;;;;;;;;;;4378055;32;20153;-75
2021/08/25 04:10:41;;;;;;;4.05;2.20;;;;;;;;;;4391304;32;20061;-75
2021/08/25 04:13:08;;;;;;;3.75;2.65;;;;;;;;;;4393855;32;20073;-74
2021/08/25 04:15:34;;;;;;;4.70;3.15;;;;;;;;;;4355489;32;20090;-74
2021/08/25 04:18:01;;;;;;;4.97;3.00;;;;;;;;;;4355085;32;20089;-74
2021/08/25 04:20:27;;;;;;;4.35;3.15;;;;;;;;;;4367896;32;20066;-75
2021/08/25 04:22:54;;;;;;;3.83;2.95;;;;;;;;;;4393858;32;20142;-75
2021/08/25 04:25:20;;;;;;;2.72;1.92;;;;;;;;;;4355762;32;20498;-74
2021/08/25 04:27:47;;;;;;;3.92;2.08;;;;;;;;;;4355391;32;20085;-75
2021/08/25 04:30:13;;;;;;;0.82;0.82;;;;;;;;;;4379823;32;20077;-75
2021/08/25 04:32:40;;;;;;;4.68;3.20;;;;;;;;;;4379885;32;20181;-75
2021/08/25 04:35:06;;;;;;;4.75;2.67;;;;;;;;;;4367840;32;20070;-75
2021/08/25 04:37:33;;;;;;;5.87;3.28;;;;;;;;;;4367770;32;20070;-75
2021/08/25 04:40:00;;;;;;;4.03;1.83;;;;;;;;;;4379652;32;20104;-74
2021/08/25 04:42:26;;;;;;;5.32;3.05;;;;;;;;;;4355282;32;20078;-75
2021/08/25 04:44:53;;;;;;;4.18;2.70;;;;;;;;;;4367929;32;20082;-74
2021/08/25 04:47:19;;;;;;;3.22;2.62;;;;;;;;;;4380161;32;20089;-76
2021/08/25 04:49:45;;;;;;;4.57;3.10;;;;;;;;;;4393921;32;20093;-75
2021/08/25 04:52:14;;;;;;;3.65;2.67;;;;;;;;;;4379390;32;20074;-77
2021/08/25 04:54:40;;;;;;;7.50;2.97;;;;;;;;;;4379359;32;20082;-75
2021/08/25 04:57:07;;;;;;;5.82;2.90;;;;;;;;;;4354676;32;20555;-74
2021/08/25 04:59:33;;;;;;;4.32;2.95;;;;;;;;;;4367133;32;20181;-77
2021/08/25 05:01:59;;;;;;;4.57;3.15;;;;;;;;;;4367133;32;20108;-74
2021/08/25 05:04:26;;;;;;;6.62;3.10;;;;;;;;;;4393572;32;20085;-72
2021/08/25 05:06:52;;;;;;;5.35;2.85;;;;;;;;;;4379244;32;20084;-73
2021/08/25 05:09:19;;;;;;;5.03;2.80;;;;;;;;;;4379178;32;20069;-74
2021/08/25 05:11:45;;;;;;;6.32;3.05;;;;;;;;;;4367058;32;20128;-76
2021/08/25 05:14:12;;;;;;;4.43;2.97;;;;;;;;;;4379827;32;20078;-75
2021/08/25 05:16:38;;;;;;;3.42;2.60;;;;;;;;;;4354883;32;20098;-75
2021/08/25 05:19:05;;;;;;;5.57;3.22;;;;;;;;;;4379498;32;20074;-74
2021/08/25 05:21:31;;;;;;;5.80;2.70;;;;;;;;;;4379692;32;20089;-74
2021/08/25 05:24:01;;;;;;;6.20;3.05;;;;;;;;;;4392950;32;20155;-73
2021/08/25 05:26:28;;;;;;;6.70;3.80;;;;;;;;;;4355509;32;20495;-74
2021/08/25 05:28:57;;;;;;;6.40;3.15;;;;;;;;;;4379310;32;20065;-75
2021/08/25 05:31:24;;;;;;;4.45;3.10;;;;;;;;;;4366802;32;20087;-73
2021/08/25 05:33:51;;;;;;;5.43;3.00;;;;;;;;;;4366954;32;20066;-73
2021/08/25 05:36:17;;;;;;;5.43;3.17;;;;;;;;;;4354354;32;20518;-71
2021/08/25 05:38:44;;;;;;;5.82;2.55;;;;;;;;;;4378604;32;20073;-73
2021/08/25 05:41:10;;;;;;;7.00;2.80;;;;;;;;;;4366893;32;20582;-72
2021/08/25 05:43:37;;;;;;;4.72;3.08;;;;;;;;;;4393043;32;20080;-71
2021/08/25 05:46:03;;;;;;;5.20;3.28;;;;;;;;;;4354401;32;20070;-72
2021/08/25 05:48:30;;;;;;;5.68;3.17;;;;;;;;;;4354260;32;20152;-72
2021/08/25 05:50:56;;;;;;;4.62;2.62;;;;;;;;;;4392857;32;20083;-70
2021/08/25 05:53:23;;;;;;;4.72;2.90;;;;;;;;;;4354180;32;20182;-73
2021/08/25 05:55:49;;;;;;;5.72;3.28;;;;;;;;;;4379291;32;20070;-73
2021/08/25 05:58:16;;;;;;;4.43;2.85;;;;;;;;;;4366636;32;20092;-72
2021/08/25 06:00:42;;;;;;;3.78;2.75;;;;;;;;;;4380723;32;20155;-72
2021/08/25 06:03:09;;;;;;;5.55;3.15;;;;;;;;;;4396372;32;20487;-72
2021/08/25 06:05:36;;;;;;;4.28;2.70;;;;;;;;;;4382265;32;20066;-70
2021/08/25 06:08:02;;;;;;;4.55;2.25;;;;;;;;;;4395404;32;20081;-72
2021/08/25 06:10:29;;;;;;;4.95;3.20;;;;;;;;;;4381647;32;20066;-73
2021/08/25 06:12:55;;;;;;;2.80;2.15;;;;;;;;;;4366714;32;20070;-73
2021/08/25 06:15:22;;;;;;;2.35;1.55;;;;;;;;;;4366320;32;20096;-73
2021/08/25 06:17:49;;;;;;;4.90;3.12;;;;;;;;;;4378641;32;20096;-69
2021/08/25 06:20:15;;;;;;;6.72;2.70;;;;;;;;;;4365746;32;20164;-71
2021/08/25 06:22:42;;;;;;;4.68;2.55;;;;;;;;;;4378561;32;20165;-70
2021/08/25 06:25:09;;;;;;;7.32;3.30;;;;;;;;;;4377980;32;20097;-71
2021/08/25 06:27:36;;;;;;;4.47;3.10;;;;;;;;;;4365810;32;20069;-70
2021/08/25 06:30:02;;;;;;;3.62;2.60;;;;;;;;;;4365890;32;20659;-68
2021/08/25 06:32:29;;;;;;;3.97;2.35;;;;;;;;;;4378200;32;20518;-71
2021/08/25 06:34:56;;;;;;;5.57;2.85;;;;;;;;;;4364618;32;20515;-71
2021/08/25 06:37:23;;;;;;;4.85;2.62;;;;;;;;;;4341226;32;20089;-70
2021/08/25 06:39:49;;;;;;;6.03;2.40;;;;;;;;;;4391958;32;20073;-70
2021/08/25 06:42:15;;;;;;;4.70;3.08;;;;;;;;;;4365817;32;20604;-70
2021/08/25 06:44:42;;;;;;;6.62;3.70;;;;;;;;;;4377953;32;20456;-71
2021/08/25 06:47:08;;;;;;;9.25;3.30;;;;;;;;;;4365496;32;20093;-70
2021/08/25 06:49:35;;;;;;;5.65;3.35;;;;;;;;;;4365821;32;20071;-70
2021/08/25 06:52:01;;;;;;;5.85;3.17;;;;;;;;;;4391626;32;20069;-70
2021/08/25 06:54:28;;;;;;;6.10;3.72;;;;;;;;;;4365410;32;20078;-68
2021/08/25 06:56:54;;;;;;;4.75;3.10;;;;;;;;;;4376692;32;20112;-68
2021/08/25 06:59:21;;;;;;;5.35;3.50;;;;;;;;;;4369618;32;20254;-71
2021/08/25 07:01:47;;;;;;;5.45;3.28;;;;;;;;;;4342763;32;20094;-71
2021/08/25 07:04:14;;;;;;;5.12;3.62;;;;;;;;;;4354042;32;20116;-69
2021/08/25 07:06:41;;;;;;;6.68;3.78;;;;;;;;;;4381638;32;20164;-70
2021/08/25 07:09:07;;;;;;;7.85;4.40;;;;;;;;;;4351932;32;20101;-70
2021/08/25 07:11:34;;;;;;;8.93;4.10;;;;;;;;;;4341810;32;20075;-69
2021/08/25 07:14:02;;;;;;;5.80;4.00;;;;;;;;;;4379074;32;20093;-66
2021/08/25 07:16:33;;;;;;;5.60;4.12;;;;;;;;;;4381680;32;20538;-69
2021/08/25 07:19:01;;;;;;;9.75;4.43;;;;;;;;;;4371378;32;20081;-74
2021/08/25 07:21:27;;;;;;;6.28;4.45;;;;;;;;;;4357505;32;20122;-67
2021/08/25 07:23:54;;;;;;;9.82;4.93;;;;;;;;;;4358230;32;20089;-67
2021/08/25 07:26:20;;;;;;;13.95;5.62;;;;;;;;;;4368458;32;20111;-64
2021/08/25 07:28:47;;;;;;;7.55;4.45;;;;;;;;;;4375626;32;20089;-71
2021/08/25 07:31:14;;;;;;;6.78;4.47;;;;;;;;;;4365478;32;20070;-68
2021/08/25 07:33:41;;;;;;;8.57;5.03;;;;;;;;;;4371115;32;20073;-68
2021/08/25 07:36:08;;;;;;;6.70;4.30;;;;;;;;;;4365748;32;20089;-69
2021/08/25 07:38:34;;;;;;;8.15;4.70;;;;;;;;;;4345726;32;20069;-69
2021/08/25 07:41:01;;;;;;;13.45;4.37;;;;;;;;;;4355853;32;20086;-69
2021/08/25 07:43:27;;;;;;;7.45;4.57;;;;;;;;;;4361184;32;20501;-64
2021/08/25 07:45:54;;;;;;;7.18;4.55;;;;;;;;;;4369763;32;20901;-65
2021/08/25 07:48:21;;;;;;;8.82;4.80;;;;;;;;;;4338140;32;20098;-63
2021/08/25 07:50:52;;;;;;;7.87;5.15;;;;;;;;;;4350342;32;20086;-63
2021/08/25 07:53:19;;;;;;;6.78;4.47;;;;;;;;;;4377491;32;20485;-60
2021/08/25 07:55:45;;;;;;;9.20;4.78;;;;;;;;;;4375657;32;20078;-67
2021/08/25 07:58:13;;;;;;;8.27;4.95;;;;;;;;;;4373179;32;20097;-66
2021/08/25 08:00:39;;;;;;;8.20;4.65;;;;;;;;;;4349539;32;20074;-66
2021/08/25 08:03:07;;;;;;;7.72;4.57;;;;;;;;;;4362794;32;20085;-66
2021/08/25 08:05:34;;;;;;;7.90;4.95;;;;;;;;;;4365777;32;20070;-66
2021/08/25 08:08:00;;;;;;;7.30;4.62;;;;;;;;;;4377245;32;20070;-67
2021/08/25 08:10:27;;;;;;;7.30;4.93;;;;;;;;;;4381524;32;20174;-67
2021/08/25 08:12:53;;;;;;;7.37;4.75;;;;;;;;;;4363148;32;20074;-69
2021/08/25 08:15:20;;;;;;;9.15;4.80;;;;;;;;;;4355730;32;20070;-71
2021/08/25 08:17:47;;;;;;;9.95;5.05;;;;;;;;;;4364090;32;20074;-69
2021/08/25 08:20:17;;;;;;;9.93;5.32;;;;;;;;;;4370478;32;20158;-69
2021/08/25 08:22:43;;;;;;;11.95;5.57;;;;;;;;;;4363765;32;20074;-70
2021/08/25 08:25:10;;;;;;;9.13;5.22;;;;;;;;;;4362964;32;20156;-68
2021/08/25 08:27:36;;;;;;;8.52;5.43;;;;;;;;;;4353986;32;20528;-67
2021/08/25 08:30:04;;;;;;;14.65;5.47;;;;;;;;;;4352241;32;20098;-71
2021/08/25 08:32:30;;;;;;;8.52;4.87;;;;;;;;;;4378611;32;20066;-67
2021/08/25 08:34:56;;;;;;;10.32;5.50;;;;;;;;;;4370221;32;20062;-67
2021/08/25 08:37:23;;;;;;;7.87;5.07;;;;;;;;;;4359794;32;20105;-67
2021/08/25 08:39:49;;;;;;;13.15;5.32;;;;;;;;;;4370091;32;20086;-68
2021/08/25 08:42:33;;;;;;;10.00;5.85;;;;;;;;;;4359444;32;20106;-67
2021/08/25 08:44:59;;;;;;;8.15;5.05;;;;;;;;;;4374576;32;20085;-66
2021/08/25 08:47:26;;;;;;;10.05;5.87;;;;;;;;;;4349184;32;20500;-65
2021/08/25 08:49:58;;;;;;;10.27;5.07;;;;;;;;;;4366935;32;20090;-64
2021/08/25 08:52:25;;;;;;;10.00;5.68;;;;;;;;;;4368220;32;20555;-66
2021/08/25 08:54:54;;;;;;;6.90;4.78;;;;;;;;;;4369737;32;20077;-66
2021/08/25 08:57:21;;;;;;;9.70;5.28;;;;;;;;;;4362370;32;20150;-66
2021/08/25 08:59:47;;;;;;;8.23;5.18;;;;;;;;;;4383652;32;20085;-73
2021/08/25 09:02:34;;;;;;;8.45;5.28;;;;;;;;;;4358441;32;20073;-74
2021/08/25 09:05:00;;;;;;;;;;;;;;;;;;4364455;32;20125;-71
2021/08/25 09:07:27;;;;;;;7.07;5.43;;;;;;;;;;4370430;32;20004;-70
2021/08/25 09:09:55;;;;;;;8.63;5.18;;;;;;;;;;4383556;32;20069;-73
2021/08/25 09:12:22;;;;;;;9.43;4.90;;;;;;;;;;4360846;32;20107;-76
2021/08/25 09:14:49;;;;;;;7.20;4.70;;;;;;;;;;4373809;32;20097;-73
2021/08/25 09:17:30;;;;;;;7.25;5.07;;;;;;;;;;4359919;32;20078;-75
2021/08/25 09:20:08;;;;;;;8.77;4.70;;;;;;;;;;4355417;32;20124;-76
2021/08/25 09:22:34;;;;;;;10.73;4.57;;;;;;;;;;4356305;32;20081;-75
2021/08/25 09:25:01;;;;;;;10.73;4.55;;;;;;;;;;4384449;32;20109;-75
2021/08/25 09:27:28;;;;;;;7.10;4.62;;;;;;;;;;4365230;32;20499;-63
2021/08/25 09:30:00;;;;;;;7.22;4.20;;;;;;;;;;4384642;32;20141;-64
2021/08/25 09:32:30;;;;;;;5.50;3.92;;;;;;;;;;4361640;32;20120;-63
2021/08/25 09:34:58;;;;;;;7.18;4.55;;;;;;;;;;4370390;32;20074;-63
2021/08/25 09:37:25;;;;;;;7.82;4.12;;;;;;;;;;4366624;32;20448;-63
2021/08/25 09:39:55;;;;;;;12.13;4.50;;;;;;;;;;4364546;32;20089;-64
2021/08/25 09:42:23;;;;;;;8.05;4.18;;;;;;;;;;4355872;32;20097;-64
2021/08/25 09:45:06;;;;;;;6.37;4.35;;;;;;;;;;4375816;32;20065;-62
2021/08/25 09:47:46;;;;;;;7.05;4.12;;;;;;;;;;4344327;32;21693;-62
2021/08/25 09:50:16;;;;;;;10.07;4.78;;;;;;;;;;4356965;32;20500;-61
2021/08/25 09:52:43;;;;;;;5.72;3.65;;;;;;;;;;4363885;32;20085;-62
2021/08/25 09:55:10;;;;;;;8.43;3.95;;;;;;;;;;4363135;32;20116;-63
2021/08/25 09:57:41;;;;;;;6.28;3.53;;;;;;;;;;4345306;32;20145;-63
2021/08/25 10:00:09;;;;;;;9.75;4.60;;;;;;;;;;4368540;32;20168;-63
2021/08/25 10:02:35;;;;;;;6.45;4.20;;;;;;;;;;4359780;32;20488;-63
2021/08/25 10:05:02;;;;;;;7.70;4.10;;;;;;;;;;4379128;32;20078;-67
2021/08/25 10:07:29;;;;;;;6.10;4.00;;;;;;;;;;4379795;32;20065;-66
2021/08/25 10:09:55;;;;;;;6.70;3.70;;;;;;;;;;4359099;32;20070;-65
2021/08/25 10:12:22;;;;;;;9.43;3.72;;;;;;;;;;4376972;32;20580;-64
2021/08/25 10:14:48;;;;;;;6.15;3.87;;;;;;;;;;4361469;32;20221;-65
2021/08/25 10:17:41;;;;;;;6.50;4.03;;;;;;;;;;4380106;32;20090;-66
2021/08/25 10:20:33;;;;;;;7.00;4.10;;;;;;;;;;4374265;32;20552;-70
2021/08/25 10:23:00;;;;;;;7.53;4.22;;;;;;;;;;4358643;32;20503;-64
2021/08/25 10:25:27;;;;;;;9.15;4.35;;;;;;;;;;4346038;32;20476;-67
2021/08/25 10:28:07;;;;;;;5.32;3.65;;;;;;;;;;4370969;32;20074;-65
2021/08/25 10:30:46;;;;;;;7.50;4.15;;;;;;;;;;4364371;32;20073;-64
2021/08/25 10:33:14;;;;;;;9.45;4.53;;;;;;;;;;4379166;32;20069;-65
2021/08/25 10:35:42;;;;;;;9.50;4.72;;;;;;;;;;4360030;32;20136;-70
2021/08/25 10:38:16;;;;;;;10.38;4.45;;;;;;;;;;4362423;32;20110;-70
2021/08/25 10:40:42;;;;;;;10.52;5.15;;;;;;;;;;4349572;32;20070;-70
2021/08/25 10:43:09;;;;;;;10.75;4.62;;;;;;;;;;4374308;32;20248;-70
2021/08/25 10:45:45;;;;;;;8.63;4.85;;;;;;;;;;4330690;32;20154;-70
2021/08/25 10:48:12;;;;;;;7.97;4.40;;;;;;;;;;4382356;32;20089;-70
2021/08/25 10:50:55;;;;;;;12.70;4.78;;;;;;;;;;4353644;32;20109;-69
2021/08/25 10:53:31;;;;;;;8.23;4.50;;;;;;;;;;4379869;32;20159;-71
2021/08/25 10:56:20;;;;;;;8.50;5.30;;;;;;;;;;4363533;32;20151;-70
2021/08/25 10:58:52;;;;;;;6.90;4.15;;;;;;;;;;4351202;32;20587;-72
2021/08/25 11:01:32;;;;;;;9.73;4.75;;;;;;;;;;4353545;32;20092;-71
2021/08/25 11:04:01;;;;;;;6.55;4.32;;;;;;;;;;4353123;32;20058;-71
2021/08/25 11:06:34;;;;;;;6.45;4.18;;;;;;;;;;4366815;32;20082;-71
2021/08/25 11:09:33;;;;;;;5.62;3.40;;;;;;;;;;4388605;32;20077;-71
2021/08/25 11:12:16;;;;;;;5.90;3.92;;;;;;;;;;4352481;32;20218;-70
2021/08/25 11:14:53;;;;;;;7.62;3.85;;;;;;;;;;4361373;32;20073;-70
2021/08/25 11:17:24;;;;;;;5.55;3.53;;;;;;;;;;4366111;32;20167;-71
2021/08/25 11:19:57;;;;;;;6.22;4.00;;;;;;;;;;4345029;32;20089;-68
2021/08/25 11:22:24;;;;;;;8.57;4.20;;;;;;;;;;4374953;32;20533;-72
2021/08/25 11:24:55;;;;;;;8.30;4.10;;;;;;;;;;4364454;32;20520;-72
2021/08/25 11:27:31;;;;;;;4.75;3.45;;;;;;;;;;4361782;32;20062;-71
2021/08/25 11:30:11;;;;;;;10.27;4.05;;;;;;;;;;4348564;32;20085;-72
2021/08/25 11:32:54;;;;;;;6.18;3.80;;;;;;;;;;4349595;32;20070;-69
2021/08/25 11:35:42;;;;;;;8.55;3.50;;;;;;;;;;4362597;32;20149;-72
2021/08/25 11:38:10;;;;;;;5.75;3.28;;;;;;;;;;4357199;32;20204;-71
2021/08/25 11:40:41;;;;;;;10.77;3.90;;;;;;;;;;4348855;32;20065;-71
2021/08/25 11:43:21;;;;;;;5.18;3.47;;;;;;;;;;4352320;32;20117;-72
2021/08/25 11:45:55;;;;;;;5.60;3.17;;;;;;;;;;4352915;32;20492;-71
2021/08/25 11:48:27;;;;;;;5.40;3.53;;;;;;;;;;4354300;32;20192;-71
2021/08/25 11:50:54;;;;;;;5.50;4.00;;;;;;;;;;4359811;32;20161;-70
2021/08/25 11:53:25;;;;;;;6.47;4.35;;;;;;;;;;4347171;32;20534;-72
2021/08/25 11:55:53;;;;;;;6.28;4.30;;;;;;;;;;4368255;32;20109;-72
2021/08/25 11:58:37;;;;;;;4.57;3.50;;;;;;;;;;4369891;32;20073;-69
2021/08/25 12:01:04;;;;;;;5.47;3.40;;;;;;;;;;4373719;32;20100;-71
2021/08/25 12:03:41;;;;;;;7.03;3.80;;;;;;;;;;4363382;32;20068;-71
2021/08/25 12:06:07;;;;;;;5.55;3.22;;;;;;;;;;4383867;32;20086;-70
2021/08/25 12:08:41;;;;;;;5.25;3.45;;;;;;;;;;4369148;32;20078;-69
2021/08/25 12:11:09;;;;;;;5.95;3.22;;;;;;;;;;4350399;32;20188;-70
2021/08/25 12:13:36;;;;;;;7.45;3.45;;;;;;;;;;4369518;32;20509;-67
2021/08/25 12:16:07;;;;;;;5.82;3.60;;;;;;;;;;4353107;32;20531;-73
2021/08/25 12:18:51;;;;;;;6.35;3.25;;;;;;;;;;4356659;32;20181;-71
2021/08/25 12:21:18;;;;;;;7.68;3.10;;;;;;;;;;4338551;32;20085;-71
2021/08/25 12:24:11;;;;;;;4.70;3.42;;;;;;;;;;4366876;32;20191;-69
2021/08/25 12:26:39;;;;;;;14.60;4.57;;;;;;;;;;4364327;32;20109;-71
2021/08/25 12:29:07;;;;;;;5.68;3.33;;;;;;;;;;4367498;32;20572;-69
2021/08/25 12:31:34;;;;;;;6.30;3.58;;;;;;;;;;4363171;32;20070;-70
2021/08/25 12:34:14;;;;;;;4.12;2.92;;;;;;;;;;4366490;32;20448;-71
2021/08/25 12:36:53;;;;;;;5.78;3.53;;;;;;;;;;4362898;32;20069;-68
2021/08/25 12:39:23;;;;;;;5.10;3.28;;;;;;;;;;4368697;32;20183;-67
2021/08/25 12:41:50;;;;;;;4.85;3.20;;;;;;;;;;4373106;32;20054;-68
2021/08/25 12:44:17;;;;;;;6.07;3.62;;;;;;;;;;4363965;32;20113;-67
2021/08/25 12:47:00;;;;;;;9.77;3.25;;;;;;;;;;4351521;32;20070;-70
2021/08/25 12:49:31;;;;;;;5.43;3.70;;;;;;;;;;4358180;32;20074;-70
2021/08/25 12:51:58;;;;;;;5.20;3.08;;;;;;;;;;4359107;32;20077;-70
2021/08/25 12:54:24;;;;;;;6.45;3.70;;;;;;;;;;4366154;32;20175;-69
2021/08/25 12:56:51;;;;;;;6.18;3.30;;;;;;;;;;4362547;32;20093;-67
2021/08/25 12:59:19;;;;;;;6.20;3.20;;;;;;;;;;4363780;32;20093;-70
2021/08/25 13:01:46;;;;;;;5.32;3.33;;;;;;;;;;4351762;32;20082;-71
2021/08/25 13:04:12;;;;;;;4.62;3.10;;;;;;;;;;4365722;32;20109;-69
2021/08/25 13:06:39;;;;;;;5.62;3.20;;;;;;;;;;4355858;32;20584;-69
2021/08/25 13:09:06;;;;;;;6.22;3.30;;;;;;;;;;4359961;32;20150;-71
2021/08/25 13:11:32;;;;;;;6.25;2.95;;;;;;;;;;4362872;32;20078;-70
2021/08/25 13:13:59;;;;;;;4.97;3.42;;;;;;;;;;4370329;32;20094;-71
2021/08/25 13:16:26;;;;;;;9.40;4.25;;;;;;;;;;4355340;32;20193;-72
2021/08/25 13:18:52;;;;;;;7.43;3.75;;;;;;;;;;4346596;32;20485;-66
2021/08/25 13:21:19;;;;;;;5.15;3.70;;;;;;;;;;4366641;32;20058;-67
2021/08/25 13:23:46;;;;;;;5.12;3.37;;;;;;;;;;4358939;32;20078;-71
2021/08/25 13:26:13;;;;;;;5.18;3.92;;;;;;;;;;4359397;32;20069;-69
2021/08/25 13:28:39;;;;;;;4.40;3.08;;;;;;;;;;4381616;32;20643;-73
2021/08/25 13:31:06;;;;;;;6.60;4.10;;;;;;;;;;4367434;32;20461;-72
2021/08/25 13:33:32;;;;;;;5.00;3.42;;;;;;;;;;4369936;32;20097;-77
2021/08/25 13:35:59;;;;;;;6.05;3.53;;;;;;;;;;4356274;32;20108;-67
2021/08/25 13:38:25;;;;;;;6.85;4.12;;;;;;;;;;4357676;32;20557;-73
2021/08/25 13:40:52;;;;;;;7.18;4.07;;;;;;;;;;4365936;32;20109;-70
2021/08/25 13:43:18;;;;;;;9.75;4.03;;;;;;;;;;4363163;32;20109;-65
2021/08/25 13:45:45;;;;;;;6.95;4.35;;;;;;;;;;4357756;32;20149;-67
2021/08/25 13:48:11;;;;;;;6.07;3.90;;;;;;;;;;4355804;32;20166;-67
2021/08/25 13:50:38;;;;;;;8.00;4.07;;;;;;;;;;4372792;32;20101;-65
2021/08/25 13:53:04;;;;;;;7.05;4.20;;;;;;;;;;4360094;32;20488;-66
2021/08/25 13:55:31;;;;;;;7.78;4.40;;;;;;;;;;4369392;32;20085;-64
2021/08/25 13:57:57;;;;;;;6.82;4.78;;;;;;;;;;4386342;32;20080;-66
2021/08/25 14:00:24;;;;;;;7.62;5.03;;;;;;;;;;4366414;32;20491;-68
2021/08/25 14:02:51;;;;;;;5.53;3.75;;;;;;;;;;4352699;32;20074;-68
2021/08/25 14:05:17;;;;;;;5.65;3.87;;;;;;;;;;4380771;32;20077;-65
2021/08/25 14:07:44;;;;;;;7.30;4.37;;;;;;;;;;4365422;32;20086;-69
2021/08/25 14:10:13;;;;;;;6.28;4.15;;;;;;;;;;4355101;32;20118;-70
2021/08/25 14:12:40;;;;;;;7.57;4.47;;;;;;;;;;4364742;32;20094;-69
2021/08/25 14:15:07;;;;;;;5.95;4.28;;;;;;;;;;4363268;32;20513;-65
2021/08/25 14:17:34;;;;;;;9.27;4.60;;;;;;;;;;4354589;32;20109;-69
2021/08/25 14:20:00;;;;;;;7.60;4.30;;;;;;;;;;4364881;32;20093;-67
2021/08/25 14:22:27;;;;;;;6.90;4.12;;;;;;;;;;4363248;32;20184;-67
2021/08/25 14:24:53;;;;;;;7.10;4.25;;;;;;;;;;4369499;32;20067;-66
2021/08/25 14:27:20;;;;;;;7.25;4.15;;;;;;;;;;4369119;32;20066;-65
2021/08/25 14:29:46;;;;;;;6.70;4.12;;;;;;;;;;4354703;32;20090;-65
2021/08/25 14:32:13;;;;;;;6.62;3.80;;;;;;;;;;4343864;32;20106;-65
2021/08/25 14:34:40;;;;;;;7.18;4.00;;;;;;;;;;4383005;32;20073;-67
2021/08/25 14:37:06;;;;;;;8.13;4.00;;;;;;;;;;4366598;32;20073;-66
2021/08/25 14:39:33;;;;;;;7.10;4.00;;;;;;;;;;4331529;32;20202;-64
2021/08/25 14:41:59;;;;;;;6.55;3.70;;;;;;;;;;4369172;32;20097;-64
2021/08/25 14:44:26;;;;;;;5.62;3.67;;;;;;;;;;4369641;32;20093;-66
2021/08/25 14:46:53;;;;;;;8.13;4.00;;;;;;;;;;4368201;32;20101;-65
2021/08/25 14:49:20;;;;;;;7.32;3.80;;;;;;;;;;4351610;32;20073;-65
2021/08/25 14:51:48;;;;;;;7.22;4.18;;;;;;;;;;4360239;32;20102;-70